N216TB TIST-TFFJ
Flight info
| Callsign | N216TB |
|---|---|
| Flight time | 0h 53m |
| Altitude | 7000 |
| Route | SLUGO BOPAT |
| Aircraft | K100/L-L/C |
Departure
| Time | 2026-05-04 20:05 |
|---|---|
| Airport | Cyril E. King Airport (TIST) |
Arrival
| Time | 2026-05-04 20:58 |
|---|---|
| Airport | St. Jean Airport (TFFJ) |
| Time | Latitude | Longitude | Altitude | Speed | Heading |
|---|---|---|---|---|---|
| 2026-05-04 19:57 | 18.33892 | -64.96728 | 17 ft | 0 kts | 186° |
| 2026-05-04 19:59 | 18.33904 | -64.96727 | 17 ft | 4 kts | 178° |
| 2026-05-04 20:00 | 18.33911 | -64.96726 | 17 ft | 3 kts | 126° |
| 2026-05-04 20:00 | 18.33897 | -64.96697 | 17 ft | 6 kts | 141° |
| 2026-05-04 20:00 | 18.33849 | -64.96690 | 17 ft | 8 kts | 214° |
| 2026-05-04 20:00 | 18.33826 | -64.96760 | 17 ft | 12 kts | 258° |
| 2026-05-04 20:01 | 18.33828 | -64.96859 | 18 ft | 16 kts | 270° |
| 2026-05-04 20:01 | 18.33830 | -64.96984 | 20 ft | 19 kts | 260° |
| 2026-05-04 20:01 | 18.33817 | -64.97127 | 22 ft | 21 kts | 268° |
| 2026-05-04 20:01 | 18.33817 | -64.97128 | 22 ft | 21 kts | 268° |
| 2026-05-04 20:02 | 18.33816 | -64.97201 | 23 ft | 22 kts | 269° |
| 2026-05-04 20:02 | 18.33814 | -64.97347 | 24 ft | 20 kts | 269° |
| 2026-05-04 20:02 | 18.33796 | -64.97473 | 26 ft | 15 kts | 257° |
| 2026-05-04 20:02 | 18.33794 | -64.97596 | 27 ft | 16 kts | 269° |
| 2026-05-04 20:03 | 18.33774 | -64.97695 | 27 ft | 13 kts | 236° |
| 2026-05-04 20:03 | 18.33760 | -64.97706 | 27 ft | 0 kts | 188° |
| 2026-05-04 20:03 | 18.33732 | -64.97711 | 28 ft | 8 kts | 182° |
| 2026-05-04 20:04 | 18.33715 | -64.97675 | 28 ft | 0 kts | 86° |
| 2026-05-04 20:04 | 18.33715 | -64.97667 | 28 ft | 2 kts | 86° |
| 2026-05-04 20:04 | 18.33730 | -64.97362 | 25 ft | 77 kts | 96° |
| 2026-05-04 20:05 | 18.33809 | -64.96683 | 144 ft | 110 kts | 86° |
| 2026-05-04 20:05 | 18.33674 | -64.96003 | 626 ft | 105 kts | 120° |
| 2026-05-04 20:05 | 18.33585 | -64.95849 | 689 ft | 111 kts | 123° |
| 2026-05-04 20:05 | 18.33134 | -64.95169 | 1120 ft | 113 kts | 127° |
| 2026-05-04 20:06 | 18.32702 | -64.94526 | 1678 ft | 101 kts | 125° |
| 2026-05-04 20:06 | 18.32523 | -64.93844 | 2240 ft | 101 kts | 84° |
| 2026-05-04 20:06 | 18.32677 | -64.93162 | 2802 ft | 91 kts | 86° |
| 2026-05-04 20:06 | 18.32818 | -64.92555 | 3356 ft | 81 kts | 85° |
| 2026-05-04 20:07 | 18.32960 | -64.92033 | 3864 ft | 70 kts | 82° |
| 2026-05-04 20:07 | 18.33092 | -64.91527 | 4344 ft | 77 kts | 88° |
| 2026-05-04 20:07 | 18.33222 | -64.90905 | 4796 ft | 97 kts | 89° |
| 2026-05-04 20:07 | 18.33571 | -64.90226 | 5195 ft | 112 kts | 61° |
| 2026-05-04 20:08 | 18.33941 | -64.89543 | 5674 ft | 104 kts | 86° |
| 2026-05-04 20:08 | 18.34017 | -64.88802 | 6144 ft | 103 kts | 90° |
| 2026-05-04 20:08 | 18.34090 | -64.88058 | 6599 ft | 105 kts | 92° |
| 2026-05-04 20:08 | 18.34141 | -64.87280 | 6971 ft | 113 kts | 94° |
| 2026-05-04 20:09 | 18.34167 | -64.86336 | 6990 ft | 143 kts | 94° |
| 2026-05-04 20:09 | 18.34212 | -64.85234 | 6997 ft | 157 kts | 91° |
| 2026-05-04 20:09 | 18.34285 | -64.84060 | 7003 ft | 163 kts | 90° |
| 2026-05-04 20:09 | 18.34348 | -64.82856 | 7000 ft | 166 kts | 90° |
| 2026-05-04 20:10 | 18.34403 | -64.81639 | 7000 ft | 167 kts | 91° |
| 2026-05-04 20:10 | 18.34456 | -64.80416 | 6999 ft | 168 kts | 91° |
| 2026-05-04 20:10 | 18.34507 | -64.79203 | 6999 ft | 168 kts | 91° |
| 2026-05-04 20:10 | 18.34559 | -64.77975 | 7000 ft | 168 kts | 90° |
| 2026-05-04 20:11 | 18.34612 | -64.76747 | 6996 ft | 168 kts | 91° |
| 2026-05-04 20:11 | 18.34663 | -64.75521 | 6997 ft | 168 kts | 90° |
| 2026-05-04 20:11 | 18.34715 | -64.74298 | 7004 ft | 166 kts | 90° |
| 2026-05-04 20:11 | 18.34767 | -64.73079 | 6998 ft | 168 kts | 91° |
| 2026-05-04 20:12 | 18.34817 | -64.71846 | 7000 ft | 168 kts | 91° |
| 2026-05-04 20:12 | 18.34870 | -64.70615 | 7004 ft | 169 kts | 90° |
| 2026-05-04 20:12 | 18.34922 | -64.69384 | 7003 ft | 168 kts | 91° |
| 2026-05-04 20:12 | 18.34972 | -64.68168 | 7002 ft | 169 kts | 90° |
| 2026-05-04 20:13 | 18.35024 | -64.66936 | 7002 ft | 168 kts | 90° |
| 2026-05-04 20:13 | 18.35075 | -64.65710 | 7001 ft | 167 kts | 91° |
| 2026-05-04 20:13 | 18.35125 | -64.64486 | 7001 ft | 168 kts | 91° |
| 2026-05-04 20:13 | 18.35176 | -64.63262 | 7002 ft | 167 kts | 90° |
| 2026-05-04 20:14 | 18.35228 | -64.62039 | 7005 ft | 167 kts | 91° |
| 2026-05-04 20:14 | 18.35278 | -64.60818 | 7006 ft | 167 kts | 91° |
| 2026-05-04 20:14 | 18.35328 | -64.59590 | 7006 ft | 168 kts | 91° |
| 2026-05-04 20:14 | 18.35380 | -64.58354 | 7006 ft | 169 kts | 91° |
| 2026-05-04 20:15 | 18.35435 | -64.57141 | 7004 ft | 168 kts | 91° |
| 2026-05-04 20:15 | 18.35480 | -64.55908 | 7005 ft | 169 kts | 91° |
| 2026-05-04 20:15 | 18.35531 | -64.54673 | 7005 ft | 168 kts | 91° |
| 2026-05-04 20:15 | 18.35581 | -64.53444 | 7005 ft | 168 kts | 90° |
| 2026-05-04 20:16 | 18.35631 | -64.52211 | 7005 ft | 168 kts | 90° |
| 2026-05-04 20:16 | 18.35682 | -64.50982 | 7003 ft | 168 kts | 91° |
| 2026-05-04 20:16 | 18.35732 | -64.49757 | 7004 ft | 168 kts | 91° |
| 2026-05-04 20:16 | 18.35782 | -64.48530 | 7004 ft | 168 kts | 90° |
| 2026-05-04 20:17 | 18.35832 | -64.47302 | 7005 ft | 168 kts | 91° |
| 2026-05-04 20:17 | 18.35882 | -64.46090 | 7002 ft | 168 kts | 91° |
| 2026-05-04 20:17 | 18.35933 | -64.44866 | 7001 ft | 167 kts | 90° |
| 2026-05-04 20:17 | 18.35982 | -64.43641 | 7002 ft | 168 kts | 90° |
| 2026-05-04 20:18 | 18.36031 | -64.42416 | 7001 ft | 167 kts | 90° |
| 2026-05-04 20:18 | 18.36080 | -64.41194 | 7004 ft | 167 kts | 91° |
| 2026-05-04 20:18 | 18.36129 | -64.39971 | 7001 ft | 167 kts | 90° |
| 2026-05-04 20:18 | 18.36179 | -64.38750 | 7002 ft | 167 kts | 90° |
| 2026-05-04 20:19 | 18.36227 | -64.37546 | 7000 ft | 167 kts | 91° |
| 2026-05-04 20:19 | 18.36276 | -64.36322 | 7001 ft | 168 kts | 91° |
| 2026-05-04 20:19 | 18.36326 | -64.35092 | 7000 ft | 168 kts | 91° |
| 2026-05-04 20:19 | 18.36375 | -64.33863 | 7003 ft | 168 kts | 91° |
| 2026-05-04 20:20 | 18.36424 | -64.32629 | 7000 ft | 169 kts | 91° |
| 2026-05-04 20:20 | 18.36473 | -64.31396 | 7000 ft | 168 kts | 91° |
| 2026-05-04 20:20 | 18.36523 | -64.30166 | 6999 ft | 169 kts | 91° |
| 2026-05-04 20:20 | 18.36572 | -64.28932 | 7000 ft | 169 kts | 90° |
| 2026-05-04 20:21 | 18.36621 | -64.27698 | 7000 ft | 169 kts | 91° |
| 2026-05-04 20:21 | 18.36669 | -64.26481 | 7000 ft | 168 kts | 91° |
| 2026-05-04 20:21 | 18.36766 | -64.24018 | 7006 ft | 169 kts | 91° |
| 2026-05-04 20:22 | 18.36815 | -64.22783 | 6997 ft | 169 kts | 91° |
| 2026-05-04 20:22 | 18.36864 | -64.21551 | 6999 ft | 168 kts | 91° |
| 2026-05-04 20:22 | 18.36912 | -64.20323 | 6999 ft | 168 kts | 91° |
| 2026-05-04 20:22 | 18.36960 | -64.19093 | 6998 ft | 168 kts | 91° |
| 2026-05-04 20:23 | 18.37009 | -64.17868 | 7001 ft | 167 kts | 91° |
| 2026-05-04 20:23 | 18.37055 | -64.16660 | 7000 ft | 167 kts | 92° |
| 2026-05-04 20:23 | 18.37102 | -64.15437 | 6998 ft | 167 kts | 90° |
| 2026-05-04 20:23 | 18.37151 | -64.14218 | 6997 ft | 167 kts | 91° |
| 2026-05-04 20:24 | 18.37198 | -64.12997 | 7004 ft | 167 kts | 91° |
| 2026-05-04 20:24 | 18.37245 | -64.11776 | 7001 ft | 167 kts | 91° |
| 2026-05-04 20:24 | 18.37293 | -64.10558 | 7002 ft | 167 kts | 90° |
| 2026-05-04 20:24 | 18.37341 | -64.09329 | 6999 ft | 168 kts | 91° |
| 2026-05-04 20:25 | 18.37389 | -64.08102 | 7001 ft | 168 kts | 90° |
| 2026-05-04 20:25 | 18.37435 | -64.06893 | 6998 ft | 167 kts | 91° |
| 2026-05-04 20:25 | 18.37482 | -64.05670 | 6999 ft | 167 kts | 91° |
| 2026-05-04 20:25 | 18.37529 | -64.04450 | 7000 ft | 167 kts | 90° |
| 2026-05-04 20:26 | 18.37576 | -64.03224 | 6999 ft | 168 kts | 91° |
| 2026-05-04 20:26 | 18.37623 | -64.02002 | 7002 ft | 167 kts | 91° |
| 2026-05-04 20:26 | 18.37669 | -64.00781 | 7003 ft | 167 kts | 91° |
| 2026-05-04 20:26 | 18.37716 | -63.99557 | 7005 ft | 167 kts | 91° |
| 2026-05-04 20:27 | 18.37763 | -63.98334 | 7002 ft | 167 kts | 90° |
| 2026-05-04 20:27 | 18.37809 | -63.97114 | 7005 ft | 167 kts | 90° |
| 2026-05-04 20:27 | 18.37855 | -63.95907 | 7001 ft | 167 kts | 91° |
| 2026-05-04 20:27 | 18.37902 | -63.94691 | 7001 ft | 166 kts | 91° |
| 2026-05-04 20:28 | 18.37948 | -63.93473 | 7003 ft | 167 kts | 91° |
| 2026-05-04 20:28 | 18.37995 | -63.92255 | 7000 ft | 166 kts | 91° |
| 2026-05-04 20:28 | 18.38041 | -63.91039 | 7002 ft | 166 kts | 91° |
| 2026-05-04 20:28 | 18.38086 | -63.89821 | 7001 ft | 167 kts | 92° |
| 2026-05-04 20:29 | 18.38131 | -63.88602 | 7003 ft | 166 kts | 91° |
| 2026-05-04 20:29 | 18.38177 | -63.87383 | 7007 ft | 167 kts | 91° |
| 2026-05-04 20:29 | 18.38224 | -63.86176 | 7001 ft | 167 kts | 91° |
| 2026-05-04 20:29 | 18.38269 | -63.84960 | 7004 ft | 166 kts | 91° |
| 2026-05-04 20:30 | 18.38315 | -63.83739 | 7002 ft | 167 kts | 91° |
| 2026-05-04 20:30 | 18.38360 | -63.82519 | 7002 ft | 167 kts | 91° |
| 2026-05-04 20:30 | 18.38406 | -63.81300 | 7003 ft | 167 kts | 91° |
| 2026-05-04 20:30 | 18.38451 | -63.80080 | 7007 ft | 167 kts | 90° |
| 2026-05-04 20:31 | 18.38497 | -63.78861 | 7003 ft | 166 kts | 91° |
| 2026-05-04 20:31 | 18.38542 | -63.77642 | 7006 ft | 167 kts | 91° |
| 2026-05-04 20:31 | 18.38588 | -63.76419 | 7005 ft | 167 kts | 91° |
| 2026-05-04 20:31 | 18.38633 | -63.75201 | 7008 ft | 166 kts | 91° |
| 2026-05-04 20:32 | 18.38676 | -63.73999 | 7006 ft | 167 kts | 91° |
| 2026-05-04 20:32 | 18.38721 | -63.72779 | 7005 ft | 167 kts | 91° |
| 2026-05-04 20:32 | 18.38765 | -63.71559 | 7006 ft | 167 kts | 91° |
| 2026-05-04 20:32 | 18.38810 | -63.70337 | 7003 ft | 167 kts | 90° |
| 2026-05-04 20:33 | 18.38854 | -63.69121 | 7003 ft | 166 kts | 91° |
| 2026-05-04 20:33 | 18.38878 | -63.67905 | 7003 ft | 166 kts | 96° |
| 2026-05-04 20:33 | 18.38595 | -63.66747 | 7003 ft | 163 kts | 116° |
| 2026-05-04 20:33 | 18.37952 | -63.65771 | 7006 ft | 163 kts | 135° |
| 2026-05-04 20:34 | 18.37106 | -63.64999 | 7006 ft | 163 kts | 138° |
| 2026-05-04 20:34 | 18.36254 | -63.64210 | 7007 ft | 163 kts | 138° |
| 2026-05-04 20:34 | 18.35402 | -63.63424 | 7004 ft | 163 kts | 138° |
| 2026-05-04 20:34 | 18.34543 | -63.62640 | 6999 ft | 164 kts | 139° |
| 2026-05-04 20:35 | 18.33680 | -63.61853 | 7003 ft | 164 kts | 138° |
| 2026-05-04 20:35 | 18.32818 | -63.61063 | 6999 ft | 164 kts | 138° |
| 2026-05-04 20:35 | 18.31957 | -63.60275 | 7001 ft | 163 kts | 138° |
| 2026-05-04 20:35 | 18.31100 | -63.59491 | 7002 ft | 163 kts | 138° |
| 2026-05-04 20:36 | 18.30256 | -63.58718 | 7002 ft | 163 kts | 138° |
| 2026-05-04 20:36 | 18.29399 | -63.57934 | 7004 ft | 163 kts | 138° |
| 2026-05-04 20:36 | 18.28542 | -63.57150 | 7005 ft | 163 kts | 138° |
| 2026-05-04 20:36 | 18.27685 | -63.56367 | 6998 ft | 163 kts | 138° |
| 2026-05-04 20:37 | 18.26828 | -63.55583 | 7002 ft | 163 kts | 138° |
| 2026-05-04 20:37 | 18.25968 | -63.54797 | 7004 ft | 164 kts | 138° |
| 2026-05-04 20:37 | 18.25103 | -63.54007 | 7005 ft | 165 kts | 138° |
| 2026-05-04 20:37 | 18.24238 | -63.53219 | 7006 ft | 165 kts | 138° |
| 2026-05-04 20:38 | 18.23386 | -63.52442 | 7005 ft | 164 kts | 138° |
| 2026-05-04 20:38 | 18.22529 | -63.51657 | 7004 ft | 163 kts | 137° |
| 2026-05-04 20:38 | 18.21671 | -63.50871 | 7006 ft | 164 kts | 138° |
| 2026-05-04 20:38 | 18.20808 | -63.50085 | 7006 ft | 165 kts | 138° |
| 2026-05-04 20:39 | 18.19942 | -63.49295 | 7005 ft | 165 kts | 137° |
| 2026-05-04 20:39 | 18.19072 | -63.48502 | 7004 ft | 166 kts | 138° |
| 2026-05-04 20:39 | 18.18202 | -63.47709 | 7001 ft | 165 kts | 137° |
| 2026-05-04 20:39 | 18.17338 | -63.46919 | 7003 ft | 164 kts | 137° |
| 2026-05-04 20:40 | 18.16476 | -63.46131 | 7002 ft | 164 kts | 137° |
| 2026-05-04 20:40 | 18.15627 | -63.45356 | 7002 ft | 164 kts | 138° |
| 2026-05-04 20:40 | 18.14768 | -63.44572 | 7004 ft | 164 kts | 138° |
| 2026-05-04 20:40 | 18.13904 | -63.43784 | 7006 ft | 165 kts | 138° |
| 2026-05-04 20:41 | 18.13037 | -63.42994 | 7004 ft | 165 kts | 138° |
| 2026-05-04 20:41 | 18.12169 | -63.42202 | 7002 ft | 165 kts | 138° |
| 2026-05-04 20:41 | 18.11300 | -63.41410 | 7001 ft | 165 kts | 138° |
| 2026-05-04 20:41 | 18.10418 | -63.40608 | 6866 ft | 170 kts | 138° |
| 2026-05-04 20:42 | 18.09525 | -63.39795 | 6679 ft | 170 kts | 138° |
| 2026-05-04 20:42 | 18.08641 | -63.38988 | 6493 ft | 170 kts | 138° |
| 2026-05-04 20:42 | 18.07748 | -63.38174 | 6296 ft | 170 kts | 138° |
| 2026-05-04 20:42 | 18.06857 | -63.37362 | 6102 ft | 169 kts | 138° |
| 2026-05-04 20:43 | 18.05967 | -63.36550 | 5905 ft | 169 kts | 138° |
| 2026-05-04 20:43 | 18.05076 | -63.35739 | 5716 ft | 170 kts | 138° |
| 2026-05-04 20:43 | 18.04186 | -63.34927 | 5516 ft | 170 kts | 137° |
| 2026-05-04 20:43 | 18.03293 | -63.34116 | 5328 ft | 170 kts | 137° |
| 2026-05-04 20:44 | 18.02397 | -63.33301 | 5106 ft | 171 kts | 137° |
| 2026-05-04 20:44 | 18.01489 | -63.32474 | 4817 ft | 174 kts | 137° |
| 2026-05-04 20:44 | 18.00584 | -63.31651 | 4528 ft | 175 kts | 137° |
| 2026-05-04 20:44 | 17.99672 | -63.30822 | 4312 ft | 171 kts | 138° |
| 2026-05-04 20:45 | 17.98781 | -63.30008 | 4114 ft | 168 kts | 138° |
| 2026-05-04 20:45 | 17.97901 | -63.29207 | 3917 ft | 167 kts | 138° |
| 2026-05-04 20:45 | 17.97029 | -63.28413 | 3724 ft | 166 kts | 138° |
| 2026-05-04 20:45 | 17.96161 | -63.27622 | 3527 ft | 165 kts | 138° |
| 2026-05-04 20:46 | 17.95295 | -63.26835 | 3340 ft | 164 kts | 138° |
| 2026-05-04 20:46 | 17.94433 | -63.26049 | 3144 ft | 164 kts | 138° |
| 2026-05-04 20:46 | 17.93582 | -63.25278 | 2992 ft | 162 kts | 138° |
| 2026-05-04 20:46 | 17.92749 | -63.24520 | 2993 ft | 156 kts | 139° |
| 2026-05-04 20:47 | 17.91931 | -63.23776 | 2990 ft | 155 kts | 139° |
| 2026-05-04 20:47 | 17.91223 | -63.23056 | 2984 ft | 154 kts | 128° |
| 2026-05-04 20:47 | 17.91016 | -63.22724 | 2987 ft | 155 kts | 121° |
| 2026-05-04 20:47 | 17.90655 | -63.21658 | 2989 ft | 157 kts | 102° |
| 2026-05-04 20:48 | 17.90628 | -63.21440 | 2992 ft | 158 kts | 98° |
| 2026-05-04 20:48 | 17.90624 | -63.20289 | 2990 ft | 157 kts | 93° |
| 2026-05-04 20:48 | 17.90615 | -63.19164 | 2990 ft | 156 kts | 94° |
| 2026-05-04 20:48 | 17.90607 | -63.18021 | 2995 ft | 157 kts | 95° |
| 2026-05-04 20:49 | 17.90602 | -63.16870 | 2990 ft | 158 kts | 94° |
| 2026-05-04 20:49 | 17.90598 | -63.15721 | 2990 ft | 157 kts | 93° |
| 2026-05-04 20:49 | 17.90595 | -63.14580 | 2989 ft | 156 kts | 93° |
| 2026-05-04 20:49 | 17.90589 | -63.13441 | 2949 ft | 159 kts | 94° |
| 2026-05-04 20:50 | 17.90579 | -63.12271 | 2751 ft | 160 kts | 94° |
| 2026-05-04 20:50 | 17.90574 | -63.11105 | 2551 ft | 159 kts | 93° |
| 2026-05-04 20:50 | 17.90571 | -63.09940 | 2360 ft | 159 kts | 93° |
| 2026-05-04 20:50 | 17.90567 | -63.08800 | 2165 ft | 158 kts | 94° |
| 2026-05-04 20:51 | 17.90561 | -63.07645 | 1972 ft | 159 kts | 92° |
| 2026-05-04 20:51 | 17.90556 | -63.06481 | 1785 ft | 160 kts | 94° |
| 2026-05-04 20:51 | 17.90555 | -63.06249 | 1745 ft | 160 kts | 94° |
| 2026-05-04 20:51 | 17.90550 | -63.05321 | 1578 ft | 159 kts | 92° |
| 2026-05-04 20:52 | 17.90547 | -63.04177 | 1495 ft | 153 kts | 92° |
| 2026-05-04 20:52 | 17.90545 | -63.03068 | 1440 ft | 154 kts | 94° |
| 2026-05-04 20:52 | 17.90535 | -63.01925 | 1248 ft | 158 kts | 94° |
| 2026-05-04 20:52 | 17.90532 | -63.00787 | 1191 ft | 152 kts | 92° |
| 2026-05-04 20:53 | 17.90529 | -62.99710 | 1190 ft | 148 kts | 94° |
| 2026-05-04 20:53 | 17.90523 | -62.98665 | 1183 ft | 138 kts | 92° |
| 2026-05-04 20:53 | 17.90519 | -62.97691 | 1182 ft | 128 kts | 95° |
| 2026-05-04 20:53 | 17.90514 | -62.96796 | 1186 ft | 119 kts | 94° |
| 2026-05-04 20:54 | 17.90509 | -62.95949 | 1185 ft | 115 kts | 93° |
| 2026-05-04 20:54 | 17.90507 | -62.95119 | 1178 ft | 111 kts | 93° |
| 2026-05-04 20:54 | 17.90503 | -62.94318 | 1178 ft | 109 kts | 93° |
| 2026-05-04 20:54 | 17.90497 | -62.93545 | 1183 ft | 99 kts | 93° |
| 2026-05-04 20:55 | 17.90494 | -62.92851 | 1188 ft | 95 kts | 92° |
| 2026-05-04 20:55 | 17.90491 | -62.92167 | 1188 ft | 94 kts | 94° |
| 2026-05-04 20:55 | 17.90485 | -62.91495 | 1195 ft | 86 kts | 96° |
| 2026-05-04 20:55 | 17.90481 | -62.90901 | 1192 ft | 79 kts | 94° |
| 2026-05-04 20:56 | 17.90480 | -62.90331 | 1189 ft | 77 kts | 91° |
| 2026-05-04 20:56 | 17.90478 | -62.89770 | 1190 ft | 77 kts | 91° |
| 2026-05-04 20:56 | 17.90475 | -62.89211 | 1185 ft | 77 kts | 91° |
| 2026-05-04 20:56 | 17.90473 | -62.88655 | 1168 ft | 77 kts | 94° |
| 2026-05-04 20:57 | 17.90472 | -62.88082 | 1135 ft | 81 kts | 92° |
| 2026-05-04 20:57 | 17.90516 | -62.87490 | 1089 ft | 82 kts | 89° |
| 2026-05-04 20:57 | 17.90516 | -62.86894 | 935 ft | 81 kts | 98° |
| 2026-05-04 20:57 | 17.90441 | -62.86339 | 734 ft | 73 kts | 96° |
| 2026-05-04 20:58 | 17.90412 | -62.85822 | 513 ft | 69 kts | 94° |
| 2026-05-04 20:58 | 17.90434 | -62.85315 | 366 ft | 70 kts | 90° |
| 2026-05-04 20:58 | 17.90428 | -62.84829 | 178 ft | 64 kts | 97° |
| 2026-05-04 20:58 | 17.90443 | -62.84389 | 37 ft | 47 kts | 94° |
| 2026-05-04 20:59 | 17.90449 | -62.84170 | 23 ft | 23 kts | 90° |
| 2026-05-04 20:59 | 17.90458 | -62.84064 | 14 ft | 12 kts | 117° |
| 2026-05-04 20:59 | 17.90434 | -62.84118 | 18 ft | 11 kts | 277° |
| 2026-05-04 20:59 | 17.90439 | -62.84198 | 25 ft | 11 kts | 272° |
| 2026-05-04 21:00 | 17.90439 | -62.84272 | 30 ft | 10 kts | 268° |
| 2026-05-04 21:00 | 17.90437 | -62.84349 | 35 ft | 11 kts | 270° |
| 2026-05-04 21:00 | 17.90434 | -62.84436 | 39 ft | 13 kts | 266° |
| 2026-05-04 21:00 | 17.90432 | -62.84532 | 44 ft | 13 kts | 272° |
| 2026-05-04 21:01 | 17.90432 | -62.84615 | 47 ft | 10 kts | 263° |
| 2026-05-04 21:01 | 17.90464 | -62.84667 | 53 ft | 7 kts | 349° |
| 2026-05-04 21:01 | 17.90470 | -62.84662 | 56 ft | 0 kts | 110° |
| 2026-05-04 21:01 | 17.90471 | -62.84665 | 55 ft | 5 kts | 108° |
| 2026-05-04 21:02 | 17.90480 | -62.84690 | 52 ft | 1 kts | 110° |
| 2026-05-04 21:02 | 17.90479 | -62.84689 | 52 ft | 0 kts | 110° |